Time;durP1;ratioP1;P1;durP2;ratioP2;P2;SDS_P1;SDS_P2;PMS_P1;PMS_P2;Temp;Humidity;BMP_temperature;BMP_pressure;BME280_temperature;BME280_humidity;BME280_pressure;Samples;Min_cycle;Max_cycle;Signal;HPM_P1;HPM_P2
2021/07/17 04:01:27;;;;;;;32.63;28.47;;;18.80;99.90;;;;;;5485904;23;20597;-61
2021/07/17 04:03:54;;;;;;;30.90;25.67;;;18.80;99.90;;;;;;4974741;28;20458;-61
2021/07/17 04:06:21;;;;;;;31.50;27.20;;;18.90;99.90;;;;;;4975629;28;20450;-61
2021/07/17 04:08:47;;;;;;;30.70;27.30;;;18.80;99.90;;;;;;4978516;28;20458;-61
2021/07/17 04:11:14;;;;;;;30.80;27.40;;;18.80;99.90;;;;;;4978656;28;20532;-62
2021/07/17 04:13:41;;;;;;;30.93;27.53;;;18.80;99.90;;;;;;4978220;28;20946;-62
2021/07/17 04:16:07;;;;;;;29.07;26.13;;;18.90;99.90;;;;;;4978143;28;20984;-61
2021/07/17 04:18:35;;;;;;;29.30;26.17;;;18.90;99.90;;;;;;4978176;28;20953;-61
2021/07/17 04:21:02;;;;;;;31.13;25.80;;;18.90;99.90;;;;;;4978336;28;20482;-61
2021/07/17 04:23:29;;;;;;;31.67;26.67;;;18.90;99.90;;;;;;4978040;28;20895;-61
2021/07/17 04:25:56;;;;;;;32.60;26.83;;;18.90;99.90;;;;;;4978325;28;20504;-61
2021/07/17 04:28:23;;;;;;;29.50;26.50;;;18.90;99.90;;;;;;4979022;28;20456;-61
2021/07/17 04:30:49;;;;;;;31.73;27.73;;;19.00;99.90;;;;;;4978318;28;20482;-61
2021/07/17 04:33:16;;;;;;;28.60;25.50;;;18.90;99.90;;;;;;4978324;28;20463;-61
2021/07/17 04:35:44;;;;;;;30.37;26.03;;;18.90;99.90;;;;;;4978091;28;20835;-61
2021/07/17 04:38:11;;;;;;;36.97;27.10;;;18.90;99.90;;;;;;4978104;28;20460;-60
2021/07/17 04:40:37;;;;;;;30.63;25.67;;;19.00;99.90;;;;;;4978295;28;20482;-61
2021/07/17 04:43:04;;;;;;;28.17;25.27;;;19.00;99.90;;;;;;4978003;28;20517;-62
2021/07/17 04:45:31;;;;;;;31.27;26.40;;;19.10;99.90;;;;;;4977914;28;20458;-60
2021/07/17 04:47:58;;;;;;;29.57;26.40;;;19.10;99.90;;;;;;4980928;28;20465;-63
2021/07/17 04:50:25;;;;;;;28.40;25.43;;;19.10;99.90;;;;;;4979615;28;20455;-62
2021/07/17 04:52:53;;;;;;;29.33;25.50;;;19.10;99.90;;;;;;4978295;28;20886;-61
2021/07/17 04:55:20;;;;;;;30.37;26.00;;;19.20;99.90;;;;;;4977546;28;21019;-62
2021/07/17 04:57:47;;;;;;;28.93;25.83;;;19.20;99.90;;;;;;4977407;28;20462;-61
2021/07/17 05:00:15;;;;;;;31.13;25.50;;;19.20;99.90;;;;;;4977512;28;20459;-61
2021/07/17 05:02:49;;;;;;;30.63;26.30;;;19.20;99.90;;;;;;4977565;28;20439;-62
2021/07/17 05:05:17;;;;;;;28.77;25.80;;;19.20;99.90;;;;;;4977644;28;20489;-62
2021/07/17 05:07:43;;;;;;;28.87;25.77;;;19.30;99.90;;;;;;4977665;28;20542;-62
2021/07/17 05:10:13;;;;;;;29.47;25.57;;;19.20;99.90;;;;;;4978288;28;20462;-62
2021/07/17 05:12:40;;;;;;;30.37;25.50;;;19.20;99.90;;;;;;4977442;28;20482;-61
2021/07/17 05:15:08;;;;;;;28.57;25.77;;;19.20;99.90;;;;;;4977402;28;20471;-61
2021/07/17 05:17:35;;;;;;;33.23;25.53;;;19.20;99.90;;;;;;4976488;28;20459;-60
2021/07/17 05:20:02;;;;;;;28.00;25.07;;;19.30;99.90;;;;;;4977238;28;20454;-61
2021/07/17 05:22:28;;;;;;;26.13;23.43;;;19.30;99.90;;;;;;4977115;28;20481;-60
2021/07/17 05:24:55;;;;;;;25.80;23.00;;;19.40;99.90;;;;;;4977343;28;20462;-60
2021/07/17 05:27:23;;;;;;;26.80;24.00;;;19.40;99.90;;;;;;4977306;28;20455;-61
2021/07/17 05:29:50;;;;;;;25.60;23.23;;;19.50;99.90;;;;;;4977242;28;20453;-62
2021/07/17 05:32:17;;;;;;;35.50;25.93;;;19.40;99.90;;;;;;4977194;28;20479;-60
2021/07/17 05:34:44;;;;;;;27.67;24.30;;;19.40;99.90;;;;;;4977103;28;20458;-61
2021/07/17 05:37:11;;;;;;;30.87;24.43;;;19.40;99.90;;;;;;4977593;28;20451;-62
2021/07/17 05:39:38;;;;;;;26.83;23.90;;;19.50;99.90;;;;;;4977089;28;20454;-61
2021/07/17 05:42:05;;;;;;;27.40;24.47;;;19.50;99.90;;;;;;4976705;28;20474;-61
2021/07/17 05:44:34;;;;;;;27.80;25.00;;;19.60;99.90;;;;;;4977082;28;20455;-61
2021/07/17 05:47:00;;;;;;;27.97;24.97;;;19.60;99.90;;;;;;4976981;28;20463;-61
2021/07/17 05:49:27;;;;;;;27.13;24.23;;;19.60;99.90;;;;;;4977125;28;20459;-61
2021/07/17 05:51:54;;;;;;;25.43;22.83;;;19.60;99.90;;;;;;4976557;28;21004;-61
2021/07/17 05:54:20;;;;;;;26.00;23.20;;;19.60;99.90;;;;;;4976731;28;20874;-61
2021/07/17 05:56:47;;;;;;;25.67;23.10;;;19.60;99.90;;;;;;4977950;28;20486;-61
2021/07/17 05:59:14;;;;;;;28.53;23.53;;;19.70;99.90;;;;;;4978308;28;20466;-61
2021/07/17 06:01:42;;;;;;;26.30;23.57;;;19.70;99.90;;;;;;4977765;28;20997;-61
2021/07/17 06:04:08;;;;;;;27.60;24.67;;;19.80;99.90;;;;;;4979190;28;20466;-60
2021/07/17 06:06:35;;;;;;;24.70;22.10;;;19.80;99.90;;;;;;4979868;28;20861;-62
2021/07/17 06:09:02;;;;;;;22.97;20.50;;;19.80;99.90;;;;;;4977527;28;20466;-62
2021/07/17 06:11:28;;;;;;;26.83;23.83;;;19.90;99.90;;;;;;4976900;28;20478;-61
2021/07/17 06:13:56;;;;;;;27.33;24.33;;;19.90;99.90;;;;;;4978350;28;20454;-60
2021/07/17 06:16:22;;;;;;;25.43;22.83;;;19.90;99.90;;;;;;4977598;28;20478;-61
2021/07/17 06:18:50;;;;;;;24.63;22.03;;;20.00;99.90;;;;;;4977621;28;20839;-61
2021/07/17 06:21:17;;;;;;;26.40;22.53;;;20.10;99.90;;;;;;4976984;28;20882;-61
2021/07/17 06:23:44;;;;;;;25.67;23.03;;;20.10;99.90;;;;;;4976628;28;20466;-62
2021/07/17 06:26:11;;;;;;;26.63;23.93;;;19.80;99.90;;;;;;4977708;28;20462;-60
2021/07/17 06:28:38;;;;;;;26.03;23.30;;;20.00;99.90;;;;;;4977228;28;20459;-62
2021/07/17 06:31:05;;;;;;;27.80;23.03;;;20.00;99.90;;;;;;4977945;28;21000;-61
2021/07/17 06:33:34;;;;;;;25.03;22.60;;;20.00;99.90;;;;;;4977228;28;20458;-61
2021/07/17 06:36:03;;;;;;;24.33;21.93;;;19.90;99.90;;;;;;4975740;28;20479;-61
2021/07/17 06:38:30;;;;;;;25.63;20.17;;;19.90;99.90;;;;;;4976046;28;20454;-61
2021/07/17 06:40:56;;;;;;;23.93;21.50;;;20.00;99.90;;;;;;4975966;28;20482;-61
2021/07/17 06:43:23;;;;;;;27.53;23.30;;;19.90;99.90;;;;;;4975747;28;20482;-61
2021/07/17 06:45:50;;;;;;;28.23;22.10;;;19.90;99.90;;;;;;4975730;28;20462;-61
2021/07/17 06:48:16;;;;;;;25.50;22.80;;;20.00;99.90;;;;;;4975680;28;20459;-62
2021/07/17 06:50:44;;;;;;;24.03;21.60;;;20.00;99.90;;;;;;4975559;28;20985;-61
2021/07/17 06:53:12;;;;;;;23.70;21.47;;;20.00;99.90;;;;;;4975328;28;20985;-62
2021/07/17 06:55:39;;;;;;;25.73;21.73;;;20.00;99.90;;;;;;4975707;28;20478;-61
2021/07/17 06:58:05;;;;;;;23.77;21.37;;;20.10;99.90;;;;;;4975454;28;20454;-62
2021/07/17 07:00:34;;;;;;;24.27;21.80;;;20.20;99.90;;;;;;4975315;28;20486;-60
2021/07/17 07:03:01;;;;;;;24.43;21.00;;;20.20;99.90;;;;;;4975516;28;20447;-62
2021/07/17 07:05:27;;;;;;;23.80;20.17;;;20.30;99.90;;;;;;4975386;28;20450;-61
2021/07/17 07:07:54;;;;;;;27.33;20.10;;;20.20;99.90;;;;;;4975270;28;20458;-61
2021/07/17 07:10:22;;;;;;;20.73;18.63;;;20.20;99.90;;;;;;4975365;28;20455;-61
2021/07/17 07:12:50;;;;;;;23.53;21.17;;;20.40;99.90;;;;;;4975175;28;20458;-61
2021/07/17 07:15:17;;;;;;;26.67;21.67;;;20.40;99.90;;;;;;4975096;28;20558;-60
2021/07/17 07:17:44;;;;;;;22.53;20.17;;;20.40;99.90;;;;;;4975666;28;20525;-61
2021/07/17 07:20:13;;;;;;;25.20;22.37;;;20.40;99.90;;;;;;4975271;28;20462;-61
2021/07/17 07:22:40;;;;;;;22.67;20.47;;;20.40;99.90;;;;;;4975227;28;20458;-61
2021/07/17 07:25:09;;;;;;;25.20;21.00;;;20.50;99.90;;;;;;4974792;28;20895;-61
2021/07/17 07:27:37;;;;;;;23.47;21.03;;;20.40;99.90;;;;;;4975074;28;20461;-61
2021/07/17 07:30:06;;;;;;;24.67;22.13;;;20.40;99.90;;;;;;4975217;28;20451;-61
2021/07/17 07:32:32;;;;;;;24.93;22.33;;;20.40;99.90;;;;;;4974983;28;20493;-63
2021/07/17 07:34:59;;;;;;;24.63;22.07;;;20.40;99.90;;;;;;4979048;28;20447;-62
2021/07/17 07:37:27;;;;;;;22.27;19.93;;;20.40;99.90;;;;;;4985832;28;20529;-62
2021/07/17 07:39:54;;;;;;;24.40;21.80;;;20.40;99.90;;;;;;4974854;28;20914;-61
2021/07/17 07:42:23;;;;;;;25.00;22.23;;;20.40;99.90;;;;;;4979977;28;20474;-61
2021/07/17 07:44:51;;;;;;;30.37;21.60;;;20.30;99.90;;;;;;4982068;28;20553;-61
2021/07/17 07:47:18;;;;;;;26.37;21.50;;;20.30;99.90;;;;;;4981566;28;20451;-60
2021/07/17 07:49:45;;;;;;;31.93;22.90;;;20.30;99.90;;;;;;4983390;28;20461;-62
2021/07/17 07:52:11;;;;;;;25.87;20.33;;;20.30;99.90;;;;;;4989111;28;20632;-62
2021/07/17 07:54:38;;;;;;;22.87;20.63;;;20.30;99.90;;;;;;4983579;28;20940;-62
2021/07/17 07:57:05;;;;;;;23.00;20.70;;;20.30;99.90;;;;;;4982137;28;20542;-62
2021/07/17 07:59:32;;;;;;;23.53;20.87;;;20.30;99.90;;;;;;4981394;28;20454;-61
2021/07/17 08:02:00;;;;;;;21.80;19.70;;;20.30;99.90;;;;;;4980833;28;20490;-61
2021/07/17 08:04:27;;;;;;;23.30;19.17;;;20.20;99.90;;;;;;4981053;28;20455;-62
2021/07/17 08:06:54;;;;;;;20.80;18.70;;;20.20;99.90;;;;;;4982853;28;20960;-61
2021/07/17 08:09:20;;;;;;;20.50;17.73;;;20.20;99.90;;;;;;4983950;28;20517;-61
2021/07/17 08:11:47;;;;;;;22.00;19.70;;;20.20;99.90;;;;;;4984320;28;20481;-61
2021/07/17 08:14:14;;;;;;;22.07;19.50;;;20.30;99.90;;;;;;4984688;28;20454;-62
2021/07/17 08:16:41;;;;;;;21.53;19.33;;;20.50;99.90;;;;;;4981512;28;20481;-61
2021/07/17 08:19:09;;;;;;;27.13;20.77;;;20.60;99.90;;;;;;4981225;28;20462;-61
2021/07/17 08:21:36;;;;;;;24.57;20.33;;;20.60;99.90;;;;;;4981021;28;20509;-61
2021/07/17 08:24:03;;;;;;;20.87;18.70;;;20.80;99.90;;;;;;4981021;28;20512;-61
2021/07/17 08:26:31;;;;;;;24.00;19.67;;;20.80;99.90;;;;;;4981234;28;20833;-61
2021/07/17 08:28:57;;;;;;;22.70;20.27;;;20.90;99.90;;;;;;4980946;28;20513;-61
2021/07/17 08:31:24;;;;;;;23.70;17.47;;;21.00;99.90;;;;;;4980954;28;20482;-61
2021/07/17 08:33:51;;;;;;;26.50;19.80;;;21.00;99.90;;;;;;4981107;28;20457;-62
2021/07/17 08:36:19;;;;;;;21.60;19.60;;;21.00;99.90;;;;;;4981043;28;20525;-60
2021/07/17 08:38:45;;;;;;;20.60;18.40;;;21.10;99.90;;;;;;4982013;28;20466;-62
2021/07/17 08:41:13;;;;;;;22.70;17.60;;;21.10;99.90;;;;;;4981224;28;20679;-61
2021/07/17 08:43:40;;;;;;;21.10;18.67;;;21.30;99.90;;;;;;4980927;28;20965;-61
2021/07/17 08:46:07;;;;;;;20.30;18.17;;;21.60;99.90;;;;;;4985252;28;20461;-61
2021/07/17 08:48:35;;;;;;;22.30;18.77;;;21.70;99.90;;;;;;4989809;28;20466;-62
2021/07/17 08:51:04;;;;;;;19.30;17.13;;;21.80;99.90;;;;;;4991158;28;20466;-62
2021/07/17 08:53:33;;;;;;;21.23;19.00;;;21.80;99.90;;;;;;4989428;28;20470;-62
2021/07/17 08:56:00;;;;;;;23.80;18.40;;;21.60;99.90;;;;;;4978941;28;20481;-62
2021/07/17 08:58:28;;;;;;;21.30;17.50;;;21.70;99.90;;;;;;4977844;28;20832;-61
2021/07/17 09:00:54;;;;;;;19.37;17.40;;;21.60;99.90;;;;;;4977414;28;20525;-61
2021/07/17 09:03:21;;;;;;;21.83;18.43;;;21.50;99.90;;;;;;4977751;28;20466;-60
2021/07/17 09:05:49;;;;;;;22.73;18.37;;;21.60;99.90;;;;;;4977699;28;20469;-61
2021/07/17 09:08:19;;;;;;;23.07;18.70;;;21.50;99.90;;;;;;4977895;28;20537;-61
2021/07/17 09:10:49;;;;;;;23.57;18.93;;;21.40;99.90;;;;;;4977508;28;20483;-61
2021/07/17 09:13:21;;;;;;;20.70;18.33;;;21.20;99.90;;;;;;4977121;28;20446;-61
2021/07/17 09:16:00;;;;;;;20.47;18.30;;;21.20;99.90;;;;;;4977432;28;20450;-63
2021/07/17 09:18:32;;;;;;;21.07;19.07;;;21.20;99.90;;;;;;4977443;28;20438;-60
2021/07/17 09:21:04;;;;;;;22.53;19.67;;;21.30;99.90;;;;;;4976994;28;20978;-60
2021/07/17 09:23:32;;;;;;;19.37;17.40;;;21.30;99.90;;;;;;4977638;28;20443;-61
2021/07/17 09:26:02;;;;;;;20.50;18.30;;;21.50;99.90;;;;;;4977303;28;20455;-61
2021/07/17 09:28:30;;;;;;;22.90;17.80;;;21.50;99.90;;;;;;4977171;28;20546;-61
2021/07/17 09:30:59;;;;;;;20.87;18.70;;;21.60;99.90;;;;;;4977221;28;20470;-60
2021/07/17 09:33:26;;;;;;;18.33;16.40;;;21.70;99.90;;;;;;4977172;28;20455;-60
2021/07/17 09:35:54;;;;;;;22.70;17.80;;;21.80;99.90;;;;;;4977049;28;20462;-61
2021/07/17 09:38:22;;;;;;;19.50;17.47;;;21.80;99.90;;;;;;4977020;28;20821;-61
2021/07/17 09:40:52;;;;;;;20.73;18.73;;;22.00;99.90;;;;;;4976909;28;20470;-62
2021/07/17 09:43:44;;;;;;;20.10;17.47;;;22.10;99.90;;;;;;4977018;28;20454;-60
2021/07/17 09:46:19;;;;;;;19.33;17.43;;;22.10;99.90;;;;;;4962913;28;20463;-61
2021/07/17 09:48:48;;;;;;;20.00;17.80;;;22.20;99.90;;;;;;4976714;28;20462;-62
2021/07/17 09:51:19;;;;;;;26.07;17.10;;;22.10;99.90;;;;;;4977587;28;20500;-62
2021/07/17 09:53:48;;;;;;;19.60;17.50;;;22.40;99.90;;;;;;4977251;28;20841;-62
2021/07/17 09:56:17;;;;;;;18.77;17.00;;;22.70;99.90;;;;;;4977097;28;20494;-61
2021/07/17 09:58:46;;;;;;;18.77;16.70;;;22.90;99.90;;;;;;4977094;28;20446;-62
2021/07/17 10:01:24;;;;;;;19.07;17.43;;;23.10;99.90;;;;;;4976663;28;20486;-62
2021/07/17 10:03:53;;;;;;;19.27;17.27;;;23.20;99.90;;;;;;4976560;28;20458;-61
2021/07/17 10:06:32;;;;;;;17.93;16.10;;;23.30;99.90;;;;;;4977882;28;20857;-61
2021/07/17 10:09:00;;;;;;;20.63;16.90;;;23.40;99.90;;;;;;4977678;28;20443;-62
2021/07/17 10:11:29;;;;;;;19.40;17.37;;;23.20;99.90;;;;;;4976460;28;20502;-61
2021/07/17 10:13:57;;;;;;;18.97;16.93;;;23.30;99.90;;;;;;4977023;28;20454;-61
2021/07/17 10:16:27;;;;;;;17.90;16.03;;;23.40;99.90;;;;;;4976954;28;20485;-60
2021/07/17 10:18:55;;;;;;;18.57;16.47;;;23.50;99.90;;;;;;4976564;28;20463;-61
2021/07/17 10:21:23;;;;;;;18.80;17.03;;;23.60;99.90;;;;;;4976585;28;20475;-61
2021/07/17 10:23:50;;;;;;;19.03;17.23;;;23.70;99.90;;;;;;4976867;28;20455;-62
2021/07/17 10:26:17;;;;;;;17.27;15.57;;;23.90;99.90;;;;;;4977574;28;20462;-61
2021/07/17 10:28:43;;;;;;;21.00;17.40;;;24.10;99.90;;;;;;4977532;28;20794;-61
2021/07/17 10:31:11;;;;;;;17.80;15.90;;;24.20;99.90;;;;;;4977027;28;20993;-61
2021/07/17 10:33:38;;;;;;;17.80;16.00;;;24.40;99.90;;;;;;4977093;28;20458;-62
2021/07/17 10:36:09;;;;;;;19.80;17.80;;;24.60;99.90;;;;;;4976474;28;20809;-61
2021/07/17 10:38:42;;;;;;;17.47;15.67;;;24.70;99.90;;;;;;4976767;28;20524;-61
2021/07/17 10:41:14;;;;;;;17.30;15.80;;;24.90;99.90;;;;;;4976816;28;20482;-61
2021/07/17 10:43:42;;;;;;;18.20;16.50;;;24.80;99.90;;;;;;4976630;28;20439;-61
2021/07/17 10:46:30;;;;;;;18.20;16.20;;;24.70;99.90;;;;;;4976223;28;20984;-60
2021/07/17 10:48:58;;;;;;;19.63;16.90;;;24.60;99.90;;;;;;4976774;28;20530;-62
2021/07/17 10:51:32;;;;;;;18.10;16.30;;;24.50;99.90;;;;;;4976515;28;20490;-62
2021/07/17 10:54:00;;;;;;;17.77;15.90;;;24.40;99.90;;;;;;4976046;28;20494;-62
2021/07/17 10:56:35;;;;;;;18.63;16.93;;;24.50;99.90;;;;;;4976039;28;20450;-61
2021/07/17 10:59:07;;;;;;;16.87;15.27;;;24.50;99.90;;;;;;4975748;28;21012;-62
2021/07/17 11:02:09;;;;;;;17.60;15.80;;;24.50;99.90;;;;;;4975634;28;20483;-62
2021/07/17 11:04:39;;;;;;;16.97;15.30;;;24.30;99.90;;;;;;4976145;28;20438;-62
2021/07/17 11:07:39;;;;;;;16.27;14.73;;;24.50;99.90;;;;;;4976446;28;20463;-61
2021/07/17 11:10:11;;;;;;;18.63;16.80;;;24.50;99.90;;;;;;4988281;28;20489;-62
2021/07/17 11:12:48;;;;;;;18.37;15.53;;;24.50;99.90;;;;;;4984641;28;20446;-62
2021/07/17 11:15:39;;;;;;;18.27;16.57;;;24.50;99.90;;;;;;4976347;28;20450;-62
2021/07/17 11:18:33;;;;;;;18.63;16.80;;;24.40;99.90;;;;;;4976016;28;20470;-61
2021/07/17 11:21:03;;;;;;;18.53;17.00;;;24.20;99.90;;;;;;4975139;28;20489;-61
2021/07/17 11:23:38;;;;;;;18.67;16.77;;;24.10;99.90;;;;;;4975388;28;20461;-62
2021/07/17 11:26:06;;;;;;;18.20;16.47;;;24.00;99.90;;;;;;4975178;28;20818;-61
2021/07/17 11:29:05;;;;;;;17.10;15.37;;;24.00;99.90;;;;;;4975428;28;20817;-61
2021/07/17 11:31:51;;;;;;;18.40;16.30;;;24.00;99.90;;;;;;4975357;28;20510;-62
2021/07/17 11:34:44;;;;;;;18.30;16.30;;;24.20;99.90;;;;;;4975726;28;20451;-61
2021/07/17 11:37:23;;;;;;;16.70;15.10;;;24.40;99.90;;;;;;4975504;28;20470;-63
2021/07/17 11:39:54;;;;;;;18.17;15.80;;;24.60;99.90;;;;;;4976115;28;20755;-62
2021/07/17 11:42:21;;;;;;;17.63;15.80;;;24.70;99.90;;;;;;4975864;28;20478;-62
2021/07/17 11:44:52;;;;;;;17.73;16.03;;;24.70;99.90;;;;;;4975531;28;20459;-62
2021/07/17 11:47:21;;;;;;;18.23;15.60;;;24.60;99.90;;;;;;4975422;28;20439;-61
2021/07/17 11:49:53;;;;;;;16.70;14.40;;;24.40;99.90;;;;;;4975579;28;20454;-62
2021/07/17 11:52:21;;;;;;;17.00;15.10;;;24.20;99.90;;;;;;4975085;28;20510;-61
2021/07/17 11:54:52;;;;;;;16.73;14.97;;;24.20;99.90;;;;;;4975723;28;20868;-61
2021/07/17 11:57:22;;;;;;;15.37;14.07;;;24.10;99.90;;;;;;4975772;28;20803;-61
2021/07/17 11:59:57;;;;;;;15.27;13.87;;;24.00;99.90;;;;;;4976346;28;20865;-61
2021/07/17 12:02:26;;;;;;;17.77;15.93;;;23.80;99.90;;;;;;4975713;28;20492;-61
2021/07/17 12:04:56;;;;;;;16.97;14.97;;;23.70;99.90;;;;;;4975701;28;20458;-61
2021/07/17 12:07:24;;;;;;;15.93;14.47;;;23.70;99.90;;;;;;4975639;28;20934;-60
2021/07/17 12:09:53;;;;;;;16.37;14.87;;;23.80;99.90;;;;;;4975787;28;20459;-61
2021/07/17 12:12:27;;;;;;;16.77;15.23;;;23.90;99.90;;;;;;4975463;28;20478;-61
2021/07/17 12:15:13;;;;;;;16.53;14.93;;;24.00;99.90;;;;;;4975504;28;20471;-61
2021/07/17 12:17:42;;;;;;;15.37;13.83;;;23.90;99.90;;;;;;4975394;28;20473;-62
2021/07/17 12:20:14;;;;;;;16.90;15.20;;;23.90;99.90;;;;;;4975715;28;20455;-62
2021/07/17 12:22:59;;;;;;;21.00;15.40;;;23.90;99.90;;;;;;4975678;28;20439;-61
2021/07/17 12:25:28;;;;;;;17.27;15.47;;;23.90;99.90;;;;;;4975768;28;20439;-61
2021/07/17 12:28:06;;;;;;;16.77;15.17;;;23.90;99.90;;;;;;4977294;28;20458;-62
2021/07/17 12:30:35;;;;;;;19.10;16.03;;;23.90;99.90;;;;;;4979532;28;20474;-60
2021/07/17 12:33:26;;;;;;;18.10;16.30;;;23.80;99.90;;;;;;4979471;28;20459;-61
2021/07/17 12:36:08;;;;;;;16.63;15.07;;;23.70;99.90;;;;;;4964809;28;21029;-62
2021/07/17 12:38:36;;;;;;;16.87;15.37;;;23.70;99.90;;;;;;4979345;28;20462;-62
2021/07/17 12:41:07;;;;;;;18.07;16.27;;;23.70;99.90;;;;;;4979719;28;20474;-61
2021/07/17 12:43:36;;;;;;;18.23;16.20;;;23.60;99.90;;;;;;4978964;28;20842;-62
2021/07/17 12:46:15;;;;;;;18.23;16.63;;;23.50;99.90;;;;;;4979256;28;20454;-61
2021/07/17 12:48:53;;;;;;;18.60;16.90;;;23.40;99.90;;;;;;4979392;28;20439;-62
2021/07/17 12:51:24;;;;;;;18.40;16.83;;;23.40;99.90;;;;;;4979081;28;20477;-62
2021/07/17 12:53:53;;;;;;;17.33;15.80;;;23.40;99.90;;;;;;4981225;28;20442;-62
2021/07/17 12:56:35;;;;;;;18.40;16.60;;;23.60;99.90;;;;;;4978741;28;20458;-62
2021/07/17 12:59:07;;;;;;;15.90;14.30;;;24.00;99.90;;;;;;4979255;28;20496;-61
2021/07/17 13:01:35;;;;;;;16.37;14.87;;;24.20;99.90;;;;;;4978718;28;20497;-61
2021/07/17 13:04:02;;;;;;;16.13;14.73;;;24.40;99.90;;;;;;4978528;28;20497;-62
2021/07/17 13:06:30;;;;;;;15.47;14.07;;;24.50;99.90;;;;;;4978675;28;20973;-62
2021/07/17 13:08:59;;;;;;;16.03;14.37;;;24.60;99.90;;;;;;4978628;28;20915;-62
2021/07/17 13:11:27;;;;;;;16.07;14.60;;;24.70;99.90;;;;;;4978709;28;20481;-61
2021/07/17 13:13:56;;;;;;;15.13;13.90;;;25.10;99.90;;;;;;4979126;28;20458;-62
2021/07/17 13:16:31;;;;;;;14.03;12.73;;;25.40;99.90;;;;;;4978710;28;20455;-61
2021/07/17 13:18:58;;;;;;;14.23;12.93;;;25.80;99.90;;;;;;4978953;28;20898;-62
2021/07/17 13:21:50;;;;;;;14.47;13.30;;;25.90;99.90;;;;;;4978522;28;20478;-61
2021/07/17 13:24:18;;;;;;;14.87;13.70;;;26.10;99.90;;;;;;4964370;28;20462;-65
2021/07/17 13:26:53;;;;;;;15.37;13.87;;;26.20;99.90;;;;;;4979032;28;20453;-61
2021/07/17 13:29:24;;;;;;;14.67;13.47;;;26.20;99.90;;;;;;4978842;28;20430;-62
2021/07/17 13:31:54;;;;;;;15.10;13.70;;;26.30;99.90;;;;;;4979148;28;20982;-61
2021/07/17 13:34:22;;;;;;;13.97;12.57;;;26.30;99.90;;;;;;4980044;28;20445;-62
2021/07/17 13:36:57;;;;;;;15.40;13.63;;;26.30;99.90;;;;;;4980117;28;20450;-61
2021/07/17 13:39:24;;;;;;;14.93;13.60;;;26.40;99.90;;;;;;4982680;28;20808;-61
2021/07/17 13:42:04;;;;;;;13.50;12.40;;;26.50;99.90;;;;;;4986813;28;20818;-62
2021/07/17 13:44:31;;;;;;;14.20;12.70;;;26.50;99.90;;;;;;4985376;28;20903;-63
2021/07/17 13:47:10;;;;;;;13.87;12.67;;;26.30;99.90;;;;;;4978772;28;20455;-61
2021/07/17 13:49:37;;;;;;;14.37;13.07;;;26.40;99.90;;;;;;4978486;28;20439;-62
2021/07/17 13:52:26;;;;;;;13.67;12.43;;;26.40;99.90;;;;;;4978264;28;20502;-61
2021/07/17 13:54:52;;;;;;;14.03;12.83;;;26.20;99.90;;;;;;4978318;28;20459;-62
2021/07/17 13:57:19;;;;;;;12.93;11.60;;;26.10;99.90;;;;;;4978353;28;20462;-62
2021/07/17 14:00:01;;;;;;;13.40;12.20;;;26.10;99.90;;;;;;4979505;28;20459;-61
2021/07/17 14:02:28;;;;;;;14.20;13.10;;;25.80;99.90;;;;;;4980946;28;20487;-61
2021/07/17 14:04:54;;;;;;;15.83;14.33;;;25.50;99.90;;;;;;4980626;28;20458;-61
2021/07/17 14:07:22;;;;;;;14.93;13.63;;;25.30;99.90;;;;;;4982881;28;20461;-61
2021/07/17 14:09:49;;;;;;;14.60;13.10;;;25.10;99.90;;;;;;4981340;28;20465;-63
2021/07/17 14:12:16;;;;;;;15.87;14.23;;;25.00;99.90;;;;;;4977818;28;20482;-61
2021/07/17 14:14:42;;;;;;;15.20;13.80;;;24.90;99.90;;;;;;4978066;28;20454;-62
2021/07/17 14:17:10;;;;;;;15.17;13.90;;;24.80;99.90;;;;;;4977963;28;20439;-61
2021/07/17 14:19:37;;;;;;;14.03;12.73;;;24.60;99.90;;;;;;4977309;28;20486;-61
2021/07/17 14:22:04;;;;;;;14.60;13.40;;;24.50;99.90;;;;;;4984704;28;21061;-63
2021/07/17 14:24:32;;;;;;;14.60;13.40;;;24.30;99.90;;;;;;4985780;28;20525;-63
2021/07/17 14:26:59;;;;;;;15.53;14.20;;;24.10;99.90;;;;;;4988634;28;20454;-62
2021/07/17 14:29:25;;;;;;;15.17;14.07;;;24.00;99.90;;;;;;4987476;28;20451;-62
2021/07/17 14:31:52;;;;;;;17.43;15.00;;;24.00;99.90;;;;;;4976495;28;20479;-62
2021/07/17 14:34:19;;;;;;;15.50;14.10;;;24.10;99.90;;;;;;4976249;28;20458;-62
2021/07/17 14:36:45;;;;;;;15.60;14.20;;;24.00;99.90;;;;;;4976069;28;20454;-62
2021/07/17 14:39:12;;;;;;;15.07;13.67;;;24.10;99.90;;;;;;4975984;28;20482;-62
2021/07/17 14:41:40;;;;;;;13.63;12.27;;;24.30;99.90;;;;;;4976047;28;20532;-62
2021/07/17 14:44:06;;;;;;;16.73;14.40;;;24.50;99.90;;;;;;4975543;28;20969;-62
2021/07/17 14:46:34;;;;;;;14.83;13.50;;;24.80;99.90;;;;;;4975479;28;20455;-62
2021/07/17 14:49:01;;;;;;;14.40;12.93;;;24.90;99.90;;;;;;4975441;28;20458;-62
2021/07/17 14:51:28;;;;;;;16.07;13.97;;;25.00;99.90;;;;;;4975563;28;20838;-62
2021/07/17 14:53:55;;;;;;;14.80;13.10;;;24.90;99.90;;;;;;4975859;28;20462;-61
2021/07/17 14:56:22;;;;;;;14.13;12.90;;;24.90;99.90;;;;;;4975794;28;20461;-60
2021/07/17 14:58:50;;;;;;;14.27;13.00;;;24.90;99.90;;;;;;4975578;28;20475;-60
2021/07/17 15:01:18;;;;;;;15.43;14.13;;;25.00;99.90;;;;;;4975387;28;20894;-61
2021/07/17 15:03:45;;;;;;;14.97;13.70;;;25.20;99.90;;;;;;4975553;28;20502;-61
2021/07/17 15:06:11;;;;;;;14.43;13.23;;;25.30;99.90;;;;;;4975574;28;20950;-61
2021/07/17 15:08:38;;;;;;;12.90;11.80;;;25.40;99.90;;;;;;4975451;28;20474;-61
2021/07/17 15:11:05;;;;;;;15.60;13.53;;;25.60;99.90;;;;;;4975610;28;20478;-61
2021/07/17 15:13:31;;;;;;;14.30;13.10;;;25.90;99.90;;;;;;4975498;28;20462;-61
2021/07/17 15:15:59;;;;;;;13.80;12.60;;;26.20;99.90;;;;;;4975319;28;20454;-61
2021/07/17 15:18:26;;;;;;;13.33;12.37;;;26.30;99.90;;;;;;4974990;28;20989;-61
2021/07/17 15:20:53;;;;;;;12.80;11.60;;;26.50;99.90;;;;;;4975108;28;20978;-60
2021/07/17 15:23:20;;;;;;;12.43;11.43;;;26.80;99.90;;;;;;4975727;28;20530;-60
2021/07/17 15:25:47;;;;;;;14.33;12.93;;;26.70;99.90;;;;;;4975320;28;20462;-61
2021/07/17 15:28:15;;;;;;;13.03;11.90;;;27.00;99.90;;;;;;4975357;28;20459;-61
2021/07/17 15:30:43;;;;;;;11.77;10.97;;;27.10;99.90;;;;;;4974964;28;21008;-61
2021/07/17 15:33:11;;;;;;;13.00;11.77;;;27.10;99.90;;;;;;4975223;28;20458;-61
2021/07/17 15:35:40;;;;;;;12.80;11.60;;;27.00;99.90;;;;;;4975322;28;20455;-61
2021/07/17 15:38:07;;;;;;;13.27;12.17;;;27.00;99.90;;;;;;4976066;28;20478;-61
2021/07/17 15:40:34;;;;;;;14.80;13.30;;;26.70;99.90;;;;;;4975236;28;20478;-61
2021/07/17 15:43:00;;;;;;;13.93;12.67;;;26.50;99.90;;;;;;4975071;28;20462;-60
2021/07/17 15:45:27;;;;;;;13.93;12.53;;;26.30;99.90;;;;;;4975287;28;20462;-62
2021/07/17 15:47:55;;;;;;;14.10;12.80;;;26.20;99.90;;;;;;4975025;28;20458;-62
2021/07/17 15:50:25;;;;;;;13.37;12.23;;;26.30;99.90;;;;;;4975107;28;20496;-62
2021/07/17 15:52:51;;;;;;;12.93;11.60;;;26.20;99.90;;;;;;4974732;28;20459;-62
2021/07/17 15:55:18;;;;;;;12.90;11.70;;;26.20;99.90;;;;;;4975098;28;20535;-62
2021/07/17 15:57:45;;;;;;;13.70;12.60;;;26.20;99.90;;;;;;4974937;28;20462;-61
2021/07/17 16:00:14;;;;;;;12.73;11.50;;;26.10;99.90;;;;;;4974907;28;20451;-61
2021/07/17 16:02:42;;;;;;;11.97;10.97;;;26.10;99.90;;;;;;4976429;28;20434;-61
2021/07/17 16:05:10;;;;;;;14.07;12.70;;;26.30;99.90;;;;;;4978832;28;20454;-61
2021/07/17 16:07:39;;;;;;;12.77;11.57;;;26.40;99.90;;;;;;4978819;28;20519;-62
2021/07/17 16:10:08;;;;;;;13.80;12.63;;;26.50;99.90;;;;;;4979499;28;20454;-61
2021/07/17 16:12:35;;;;;;;12.73;11.80;;;26.50;99.90;;;;;;4978677;28;20481;-61
2021/07/17 16:15:01;;;;;;;12.10;11.10;;;26.60;99.90;;;;;;4979150;28;20509;-63
2021/07/17 16:17:28;;;;;;;14.37;11.67;;;26.80;99.90;;;;;;4979135;28;20454;-61
2021/07/17 16:19:55;;;;;;;13.10;11.90;;;26.80;99.90;;;;;;4978653;28;20485;-61
2021/07/17 16:22:22;;;;;;;12.07;11.07;;;27.00;99.90;;;;;;4978572;28;20474;-60
2021/07/17 16:24:50;;;;;;;12.80;11.70;;;27.00;99.90;;;;;;4978568;28;20462;-62
2021/07/17 16:27:16;;;;;;;13.27;12.13;;;26.90;99.90;;;;;;4978066;28;20458;-62
2021/07/17 16:29:43;;;;;;;13.50;12.50;;;26.80;99.90;;;;;;4978175;28;20454;-60
2021/07/17 16:32:10;;;;;;;11.83;10.87;;;26.60;99.90;;;;;;4978403;28;20548;-61
2021/07/17 16:34:36;;;;;;;13.37;12.23;;;26.50;99.90;;;;;;4978343;28;20454;-61
2021/07/17 16:37:03;;;;;;;13.07;11.87;;;26.50;99.90;;;;;;4978400;28;20451;-62
2021/07/17 16:39:30;;;;;;;15.43;13.00;;;26.60;99.90;;;;;;4979189;28;20479;-61